sensor_id;sensor_type;location;lat;lon;timestamp;temperature;humidity
10263;DHT22;5177;50.068;8.156;2023-04-15T00:00:32;7.20;1.00
10263;DHT22;5177;50.068;8.156;2023-04-15T00:02:58;7.20;1.00
10263;DHT22;5177;50.068;8.156;2023-04-15T00:05:24;7.20;1.00
10263;DHT22;5177;50.068;8.156;2023-04-15T00:07:50;7.20;1.00
10263;DHT22;5177;50.068;8.156;2023-04-15T00:10:15;7.10;1.00
10263;DHT22;5177;50.068;8.156;2023-04-15T00:12:41;7.20;1.00
10263;DHT22;5177;50.068;8.156;2023-04-15T00:15:07;7.00;1.00
10263;DHT22;5177;50.068;8.156;2023-04-15T00:17:33;6.90;1.00
10263;DHT22;5177;50.068;8.156;2023-04-15T00:19:59;6.90;1.00
10263;DHT22;5177;50.068;8.156;2023-04-15T00:22:28;6.80;1.00
10263;DHT22;5177;50.068;8.156;2023-04-15T00:24:53;6.70;1.00
10263;DHT22;5177;50.068;8.156;2023-04-15T00:27:19;6.70;1.00
10263;DHT22;5177;50.068;8.156;2023-04-15T00:29:44;6.70;1.00
10263;DHT22;5177;50.068;8.156;2023-04-15T00:32:10;6.70;1.00
10263;DHT22;5177;50.068;8.156;2023-04-15T00:34:35;6.60;1.00
10263;DHT22;5177;50.068;8.156;2023-04-15T00:37:01;6.60;1.00
10263;DHT22;5177;50.068;8.156;2023-04-15T00:39:27;6.60;1.00
10263;DHT22;5177;50.068;8.156;2023-04-15T00:41:52;6.60;1.00
10263;DHT22;5177;50.068;8.156;2023-04-15T00:44:19;6.60;1.00
10263;DHT22;5177;50.068;8.156;2023-04-15T00:46:44;6.60;1.00
10263;DHT22;5177;50.068;8.156;2023-04-15T00:49:10;6.60;1.00
10263;DHT22;5177;50.068;8.156;2023-04-15T00:51:37;6.60;1.00
10263;DHT22;5177;50.068;8.156;2023-04-15T00:54:03;6.60;1.00
10263;DHT22;5177;50.068;8.156;2023-04-15T00:56:29;6.60;1.00
10263;DHT22;5177;50.068;8.156;2023-04-15T00:58:55;6.70;1.00
10263;DHT22;5177;50.068;8.156;2023-04-15T01:01:21;6.60;1.00
10263;DHT22;5177;50.068;8.156;2023-04-15T01:03:47;6.60;1.00
10263;DHT22;5177;50.068;8.156;2023-04-15T01:06:13;6.60;1.00
10263;DHT22;5177;50.068;8.156;2023-04-15T01:08:39;6.60;1.00
10263;DHT22;5177;50.068;8.156;2023-04-15T01:11:05;6.50;1.00
10263;DHT22;5177;50.068;8.156;2023-04-15T01:13:32;6.50;1.00
10263;DHT22;5177;50.068;8.156;2023-04-15T01:15:58;6.50;1.00
10263;DHT22;5177;50.068;8.156;2023-04-15T01:18:23;6.50;1.00
10263;DHT22;5177;50.068;8.156;2023-04-15T01:20:49;6.50;3.30
10263;DHT22;5177;50.068;8.156;2023-04-15T01:23:15;6.40;22.20
10263;DHT22;5177;50.068;8.156;2023-04-15T01:25:41;6.40;26.70
10263;DHT22;5177;50.068;8.156;2023-04-15T01:28:07;6.40;35.60
10263;DHT22;5177;50.068;8.156;2023-04-15T01:30:34;6.40;46.30
10263;DHT22;5177;50.068;8.156;2023-04-15T01:32:59;6.40;31.40
10263;DHT22;5177;50.068;8.156;2023-04-15T01:35:25;6.40;29.50
10263;DHT22;5177;50.068;8.156;2023-04-15T01:37:51;6.30;29.70
10263;DHT22;5177;50.068;8.156;2023-04-15T01:40:18;6.30;38.00
10263;DHT22;5177;50.068;8.156;2023-04-15T01:42:44;6.30;39.60
10263;DHT22;5177;50.068;8.156;2023-04-15T01:45:10;6.20;14.80
10263;DHT22;5177;50.068;8.156;2023-04-15T01:47:36;6.10;24.90
10263;DHT22;5177;50.068;8.156;2023-04-15T01:50:02;6.10;16.20
10263;DHT22;5177;50.068;8.156;2023-04-15T01:52:27;6.00;24.40
10263;DHT22;5177;50.068;8.156;2023-04-15T01:54:53;5.90;24.60
10263;DHT22;5177;50.068;8.156;2023-04-15T01:57:18;5.90;27.60
10263;DHT22;5177;50.068;8.156;2023-04-15T01:59:44;5.90;21.00
10263;DHT22;5177;50.068;8.156;2023-04-15T02:02:10;5.80;14.00
10263;DHT22;5177;50.068;8.156;2023-04-15T02:04:38;5.80;18.50
10263;DHT22;5177;50.068;8.156;2023-04-15T02:07:04;5.90;18.00
10263;DHT22;5177;50.068;8.156;2023-04-15T02:09:30;5.80;21.40
10263;DHT22;5177;50.068;8.156;2023-04-15T02:11:55;5.80;24.30
10263;DHT22;5177;50.068;8.156;2023-04-15T02:14:21;5.80;42.60
10263;DHT22;5177;50.068;8.156;2023-04-15T02:16:46;5.80;45.20
10263;DHT22;5177;50.068;8.156;2023-04-15T02:19:12;5.80;56.30
10263;DHT22;5177;50.068;8.156;2023-04-15T02:21:38;5.80;63.30
10263;DHT22;5177;50.068;8.156;2023-04-15T02:24:04;5.80;54.80
10263;DHT22;5177;50.068;8.156;2023-04-15T02:26:30;5.80;76.60
10263;DHT22;5177;50.068;8.156;2023-04-15T02:28:58;5.70;85.60
10263;DHT22;5177;50.068;8.156;2023-04-15T02:31:24;5.70;82.40
10263;DHT22;5177;50.068;8.156;2023-04-15T02:33:50;5.70;74.90
10263;DHT22;5177;50.068;8.156;2023-04-15T02:36:15;5.70;63.80
10263;DHT22;5177;50.068;8.156;2023-04-15T02:38:41;5.60;57.80
10263;DHT22;5177;50.068;8.156;2023-04-15T02:41:08;5.60;84.40
10263;DHT22;5177;50.068;8.156;2023-04-15T02:43:34;5.50;69.70
10263;DHT22;5177;50.068;8.156;2023-04-15T02:45:59;5.50;84.80
10263;DHT22;5177;50.068;8.156;2023-04-15T02:48:25;5.50;90.00
10263;DHT22;5177;50.068;8.156;2023-04-15T02:50:51;5.50;89.40
10263;DHT22;5177;50.068;8.156;2023-04-15T02:53:16;5.50;99.90
10263;DHT22;5177;50.068;8.156;2023-04-15T02:55:42;5.50;99.90
10263;DHT22;5177;50.068;8.156;2023-04-15T02:58:08;5.50;99.90
10263;DHT22;5177;50.068;8.156;2023-04-15T03:00:33;5.50;99.90
10263;DHT22;5177;50.068;8.156;2023-04-15T03:03:00;5.50;99.90
10263;DHT22;5177;50.068;8.156;2023-04-15T03:05:26;5.40;99.90
10263;DHT22;5177;50.068;8.156;2023-04-15T03:07:52;5.50;99.90
10263;DHT22;5177;50.068;8.156;2023-04-15T03:10:18;5.40;99.90
10263;DHT22;5177;50.068;8.156;2023-04-15T03:12:43;5.40;99.90
10263;DHT22;5177;50.068;8.156;2023-04-15T03:15:09;5.50;99.90
10263;DHT22;5177;50.068;8.156;2023-04-15T03:17:34;5.50;99.90
10263;DHT22;5177;50.068;8.156;2023-04-15T03:20:00;5.50;99.90
10263;DHT22;5177;50.068;8.156;2023-04-15T03:22:26;5.50;99.90
10263;DHT22;5177;50.068;8.156;2023-04-15T03:24:52;5.50;99.90
10263;DHT22;5177;50.068;8.156;2023-04-15T03:27:17;5.50;99.90
10263;DHT22;5177;50.068;8.156;2023-04-15T03:29:43;5.50;99.90
10263;DHT22;5177;50.068;8.156;2023-04-15T03:32:08;5.60;99.90
10263;DHT22;5177;50.068;8.156;2023-04-15T03:34:34;5.50;99.90
10263;DHT22;5177;50.068;8.156;2023-04-15T03:36:59;5.50;99.90
10263;DHT22;5177;50.068;8.156;2023-04-15T03:39:25;5.50;99.90
10263;DHT22;5177;50.068;8.156;2023-04-15T03:41:51;5.50;99.90
10263;DHT22;5177;50.068;8.156;2023-04-15T03:44:16;5.50;99.90
10263;DHT22;5177;50.068;8.156;2023-04-15T03:46:42;5.50;99.90
10263;DHT22;5177;50.068;8.156;2023-04-15T03:49:07;5.40;99.90
10263;DHT22;5177;50.068;8.156;2023-04-15T03:51:33;5.40;99.90
10263;DHT22;5177;50.068;8.156;2023-04-15T03:53:59;5.30;99.90
10263;DHT22;5177;50.068;8.156;2023-04-15T03:56:24;5.30;99.90
10263;DHT22;5177;50.068;8.156;2023-04-15T03:58:50;5.30;99.90
10263;DHT22;5177;50.068;8.156;2023-04-15T04:01:16;5.30;99.90
10263;DHT22;5177;50.068;8.156;2023-04-15T04:03:41;5.20;99.90
10263;DHT22;5177;50.068;8.156;2023-04-15T04:06:07;5.30;99.90
10263;DHT22;5177;50.068;8.156;2023-04-15T04:08:32;5.30;99.90
10263;DHT22;5177;50.068;8.156;2023-04-15T04:10:58;5.30;99.90
10263;DHT22;5177;50.068;8.156;2023-04-15T04:13:23;5.30;99.90
10263;DHT22;5177;50.068;8.156;2023-04-15T04:15:49;5.40;99.90
10263;DHT22;5177;50.068;8.156;2023-04-15T04:18:15;5.40;99.90
10263;DHT22;5177;50.068;8.156;2023-04-15T04:20:40;5.40;99.90
10263;DHT22;5177;50.068;8.156;2023-04-15T04:23:06;5.40;99.90
10263;DHT22;5177;50.068;8.156;2023-04-15T04:25:31;5.40;99.90
10263;DHT22;5177;50.068;8.156;2023-04-15T04:27:57;5.40;99.90
10263;DHT22;5177;50.068;8.156;2023-04-15T04:30:23;5.50;99.90
10263;DHT22;5177;50.068;8.156;2023-04-15T04:32:49;5.50;99.90
10263;DHT22;5177;50.068;8.156;2023-04-15T04:35:15;5.60;99.90
10263;DHT22;5177;50.068;8.156;2023-04-15T04:37:40;5.60;99.90
10263;DHT22;5177;50.068;8.156;2023-04-15T04:40:06;5.70;99.90
10263;DHT22;5177;50.068;8.156;2023-04-15T04:42:32;5.60;99.90
10263;DHT22;5177;50.068;8.156;2023-04-15T04:44:57;5.60;99.90
10263;DHT22;5177;50.068;8.156;2023-04-15T04:47:23;5.70;99.90
10263;DHT22;5177;50.068;8.156;2023-04-15T04:49:48;5.60;99.90
10263;DHT22;5177;50.068;8.156;2023-04-15T04:52:14;5.60;99.90
10263;DHT22;5177;50.068;8.156;2023-04-15T04:54:40;5.60;99.90
10263;DHT22;5177;50.068;8.156;2023-04-15T04:57:05;5.70;99.90
10263;DHT22;5177;50.068;8.156;2023-04-15T04:59:32;5.70;99.90
10263;DHT22;5177;50.068;8.156;2023-04-15T05:01:57;5.70;99.90
10263;DHT22;5177;50.068;8.156;2023-04-15T05:04:23;5.60;99.90
10263;DHT22;5177;50.068;8.156;2023-04-15T05:06:48;5.60;99.90
10263;DHT22;5177;50.068;8.156;2023-04-15T05:09:14;5.60;99.90
10263;DHT22;5177;50.068;8.156;2023-04-15T05:11:40;5.70;99.90
10263;DHT22;5177;50.068;8.156;2023-04-15T05:14:05;5.70;99.90
10263;DHT22;5177;50.068;8.156;2023-04-15T05:16:31;5.60;99.90
10263;DHT22;5177;50.068;8.156;2023-04-15T05:18:57;5.60;99.90
10263;DHT22;5177;50.068;8.156;2023-04-15T05:21:22;5.60;99.90
10263;DHT22;5177;50.068;8.156;2023-04-15T05:23:48;5.60;99.90
10263;DHT22;5177;50.068;8.156;2023-04-15T05:26:13;5.60;99.90
10263;DHT22;5177;50.068;8.156;2023-04-15T05:28:39;5.60;99.90
10263;DHT22;5177;50.068;8.156;2023-04-15T05:31:04;5.60;99.90
10263;DHT22;5177;50.068;8.156;2023-04-15T05:33:31;5.60;99.90
10263;DHT22;5177;50.068;8.156;2023-04-15T05:35:57;5.60;99.90
10263;DHT22;5177;50.068;8.156;2023-04-15T05:38:22;5.60;99.90
10263;DHT22;5177;50.068;8.156;2023-04-15T05:40:48;5.70;99.90
10263;DHT22;5177;50.068;8.156;2023-04-15T05:43:13;5.50;99.90
10263;DHT22;5177;50.068;8.156;2023-04-15T05:45:39;5.60;99.90
10263;DHT22;5177;50.068;8.156;2023-04-15T05:48:04;5.60;99.90
10263;DHT22;5177;50.068;8.156;2023-04-15T05:50:30;5.60;96.50
10263;DHT22;5177;50.068;8.156;2023-04-15T05:52:55;5.60;93.80
10263;DHT22;5177;50.068;8.156;2023-04-15T05:55:21;5.50;92.30
10263;DHT22;5177;50.068;8.156;2023-04-15T05:57:46;5.60;93.90
10263;DHT22;5177;50.068;8.156;2023-04-15T06:00:12;5.60;95.00
10263;DHT22;5177;50.068;8.156;2023-04-15T06:02:38;5.60;99.90
10263;DHT22;5177;50.068;8.156;2023-04-15T06:05:03;5.60;99.90
10263;DHT22;5177;50.068;8.156;2023-04-15T06:07:34;5.60;99.90
10263;DHT22;5177;50.068;8.156;2023-04-15T06:10:00;5.70;95.50
10263;DHT22;5177;50.068;8.156;2023-04-15T06:12:25;5.70;99.90
10263;DHT22;5177;50.068;8.156;2023-04-15T06:14:51;5.70;97.00
10263;DHT22;5177;50.068;8.156;2023-04-15T06:17:16;5.70;99.90
10263;DHT22;5177;50.068;8.156;2023-04-15T06:19:43;5.70;97.00
10263;DHT22;5177;50.068;8.156;2023-04-15T06:22:08;5.80;99.90
10263;DHT22;5177;50.068;8.156;2023-04-15T06:24:34;5.80;92.50
10263;DHT22;5177;50.068;8.156;2023-04-15T06:27:01;5.80;98.50
10263;DHT22;5177;50.068;8.156;2023-04-15T06:29:27;5.90;86.70
10263;DHT22;5177;50.068;8.156;2023-04-15T06:31:53;5.90;78.10
10263;DHT22;5177;50.068;8.156;2023-04-15T06:34:18;6.00;51.60
10263;DHT22;5177;50.068;8.156;2023-04-15T06:36:44;6.00;40.60
10263;DHT22;5177;50.068;8.156;2023-04-15T06:39:10;6.10;19.70
10263;DHT22;5177;50.068;8.156;2023-04-15T06:41:35;6.10;27.40
10263;DHT22;5177;50.068;8.156;2023-04-15T06:44:01;6.20;10.80
10263;DHT22;5177;50.068;8.156;2023-04-15T06:46:26;6.20;1.00
10263;DHT22;5177;50.068;8.156;2023-04-15T06:48:52;6.30;1.00
10263;DHT22;5177;50.068;8.156;2023-04-15T06:51:17;6.40;4.20
10263;DHT22;5177;50.068;8.156;2023-04-15T06:53:43;6.50;1.20
10263;DHT22;5177;50.068;8.156;2023-04-15T06:56:09;6.60;1.00
10263;DHT22;5177;50.068;8.156;2023-04-15T06:58:34;6.80;1.00
10263;DHT22;5177;50.068;8.156;2023-04-15T07:01:00;7.10;1.00
10263;DHT22;5177;50.068;8.156;2023-04-15T07:03:26;7.30;1.00
10263;DHT22;5177;50.068;8.156;2023-04-15T07:05:52;7.60;1.00
10263;DHT22;5177;50.068;8.156;2023-04-15T07:08:18;7.90;1.00
10263;DHT22;5177;50.068;8.156;2023-04-15T07:10:44;8.10;1.00
10263;DHT22;5177;50.068;8.156;2023-04-15T07:13:10;8.30;1.00
10263;DHT22;5177;50.068;8.156;2023-04-15T07:15:36;8.40;1.00
10263;DHT22;5177;50.068;8.156;2023-04-15T07:18:01;8.50;99.90
10263;DHT22;5177;50.068;8.156;2023-04-15T07:20:27;8.70;99.90
10263;DHT22;5177;50.068;8.156;2023-04-15T07:22:52;8.80;99.90
10263;DHT22;5177;50.068;8.156;2023-04-15T07:25:18;8.80;99.90
10263;DHT22;5177;50.068;8.156;2023-04-15T07:27:43;9.10;58.00
10263;DHT22;5177;50.068;8.156;2023-04-15T07:30:09;9.30;1.00
10263;DHT22;5177;50.068;8.156;2023-04-15T07:32:35;9.50;41.50
10263;DHT22;5177;50.068;8.156;2023-04-15T07:35:01;9.70;1.00
10263;DHT22;5177;50.068;8.156;2023-04-15T07:37:28;9.90;1.00
10263;DHT22;5177;50.068;8.156;2023-04-15T07:39:54;10.00;1.00
10263;DHT22;5177;50.068;8.156;2023-04-15T07:42:19;10.20;1.00
10263;DHT22;5177;50.068;8.156;2023-04-15T07:44:45;10.00;1.00
10263;DHT22;5177;50.068;8.156;2023-04-15T07:47:10;10.10;1.00
10263;DHT22;5177;50.068;8.156;2023-04-15T07:49:36;10.40;1.00
10263;DHT22;5177;50.068;8.156;2023-04-15T07:52:02;10.70;1.00
10263;DHT22;5177;50.068;8.156;2023-04-15T07:54:28;10.70;1.00
10263;DHT22;5177;50.068;8.156;2023-04-15T07:56:53;10.90;99.90
10263;DHT22;5177;50.068;8.156;2023-04-15T07:59:19;10.80;99.90
10263;DHT22;5177;50.068;8.156;2023-04-15T08:01:45;11.00;1.00
10263;DHT22;5177;50.068;8.156;2023-04-15T08:04:10;11.20;1.00
10263;DHT22;5177;50.068;8.156;2023-04-15T08:06:36;11.30;1.00
10263;DHT22;5177;50.068;8.156;2023-04-15T08:09:04;11.50;1.00
10263;DHT22;5177;50.068;8.156;2023-04-15T08:11:29;11.80;99.90
10263;DHT22;5177;50.068;8.156;2023-04-15T08:13:55;11.60;99.90
10263;DHT22;5177;50.068;8.156;2023-04-15T08:16:24;11.60;99.90
10263;DHT22;5177;50.068;8.156;2023-04-15T08:18:52;11.70;99.90
10263;DHT22;5177;50.068;8.156;2023-04-15T08:21:18;11.70;99.90
10263;DHT22;5177;50.068;8.156;2023-04-15T08:23:44;11.60;99.90
10263;DHT22;5177;50.068;8.156;2023-04-15T08:26:10;11.70;99.90
10263;DHT22;5177;50.068;8.156;2023-04-15T08:28:37;11.40;99.90
10263;DHT22;5177;50.068;8.156;2023-04-15T08:31:03;11.60;99.90
10263;DHT22;5177;50.068;8.156;2023-04-15T08:33:31;11.60;99.90
10263;DHT22;5177;50.068;8.156;2023-04-15T08:35:57;11.80;99.90
10263;DHT22;5177;50.068;8.156;2023-04-15T08:38:22;11.90;99.90
10263;DHT22;5177;50.068;8.156;2023-04-15T08:40:48;12.30;99.90
10263;DHT22;5177;50.068;8.156;2023-04-15T08:43:21;12.50;99.90
10263;DHT22;5177;50.068;8.156;2023-04-15T08:45:51;12.60;99.90
10263;DHT22;5177;50.068;8.156;2023-04-15T08:48:17;13.10;99.90
10263;DHT22;5177;50.068;8.156;2023-04-15T08:50:43;13.30;99.90
10263;DHT22;5177;50.068;8.156;2023-04-15T08:53:09;13.40;99.90
10263;DHT22;5177;50.068;8.156;2023-04-15T08:55:35;13.50;99.90
10263;DHT22;5177;50.068;8.156;2023-04-15T08:58:04;13.50;99.90
10263;DHT22;5177;50.068;8.156;2023-04-15T09:00:30;13.60;99.90
10263;DHT22;5177;50.068;8.156;2023-04-15T09:02:57;13.90;99.90
10263;DHT22;5177;50.068;8.156;2023-04-15T09:05:23;14.00;99.90
10263;DHT22;5177;50.068;8.156;2023-04-15T09:07:49;14.20;99.90
10263;DHT22;5177;50.068;8.156;2023-04-15T09:10:15;14.40;99.90
10263;DHT22;5177;50.068;8.156;2023-04-15T09:12:40;14.10;99.90
10263;DHT22;5177;50.068;8.156;2023-04-15T09:15:06;14.00;99.90
10263;DHT22;5177;50.068;8.156;2023-04-15T09:17:33;14.00;99.90
10263;DHT22;5177;50.068;8.156;2023-04-15T09:20:06;13.70;99.90
10263;DHT22;5177;50.068;8.156;2023-04-15T09:22:32;13.80;99.90
10263;DHT22;5177;50.068;8.156;2023-04-15T09:24:57;14.20;99.90
10263;DHT22;5177;50.068;8.156;2023-04-15T09:27:23;14.20;99.90
10263;DHT22;5177;50.068;8.156;2023-04-15T09:29:49;14.30;99.90
10263;DHT22;5177;50.068;8.156;2023-04-15T09:32:15;14.30;99.90
10263;DHT22;5177;50.068;8.156;2023-04-15T09:34:40;14.20;99.90
10263;DHT22;5177;50.068;8.156;2023-04-15T09:37:06;14.20;99.90
10263;DHT22;5177;50.068;8.156;2023-04-15T09:39:46;14.50;99.90
10263;DHT22;5177;50.068;8.156;2023-04-15T09:42:12;14.80;99.90
10263;DHT22;5177;50.068;8.156;2023-04-15T09:44:38;14.90;99.90
10263;DHT22;5177;50.068;8.156;2023-04-15T09:47:05;14.90;99.90
10263;DHT22;5177;50.068;8.156;2023-04-15T09:49:30;15.00;99.90
10263;DHT22;5177;50.068;8.156;2023-04-15T09:51:59;15.20;99.90
10263;DHT22;5177;50.068;8.156;2023-04-15T09:54:31;15.30;99.90
10263;DHT22;5177;50.068;8.156;2023-04-15T09:56:58;15.40;99.90
10263;DHT22;5177;50.068;8.156;2023-04-15T09:59:29;15.50;99.90
10263;DHT22;5177;50.068;8.156;2023-04-15T10:01:54;15.60;99.90
10263;DHT22;5177;50.068;8.156;2023-04-15T10:04:21;15.70;99.90
10263;DHT22;5177;50.068;8.156;2023-04-15T10:06:46;15.70;99.90
10263;DHT22;5177;50.068;8.156;2023-04-15T10:09:12;15.70;99.90
10263;DHT22;5177;50.068;8.156;2023-04-15T10:11:37;15.80;99.90
10263;DHT22;5177;50.068;8.156;2023-04-15T10:14:04;15.70;99.90
10263;DHT22;5177;50.068;8.156;2023-04-15T10:16:31;15.80;99.90
10263;DHT22;5177;50.068;8.156;2023-04-15T10:18:57;15.70;99.90
10263;DHT22;5177;50.068;8.156;2023-04-15T10:21:25;15.60;99.90
10263;DHT22;5177;50.068;8.156;2023-04-15T10:23:52;15.80;99.90
10263;DHT22;5177;50.068;8.156;2023-04-15T10:26:17;16.00;99.90
10263;DHT22;5177;50.068;8.156;2023-04-15T10:28:44;16.00;99.90
10263;DHT22;5177;50.068;8.156;2023-04-15T10:31:11;16.00;99.90
10263;DHT22;5177;50.068;8.156;2023-04-15T10:33:39;16.20;99.90
10263;DHT22;5177;50.068;8.156;2023-04-15T10:36:05;16.30;99.90
10263;DHT22;5177;50.068;8.156;2023-04-15T10:38:33;16.40;99.60
10263;DHT22;5177;50.068;8.156;2023-04-15T10:43:37;16.40;97.40
10263;DHT22;5177;50.068;8.156;2023-04-15T10:46:04;16.40;98.00
10263;DHT22;5177;50.068;8.156;2023-04-15T10:48:29;16.30;97.50
10263;DHT22;5177;50.068;8.156;2023-04-15T10:50:55;16.20;99.40
10263;DHT22;5177;50.068;8.156;2023-04-15T10:53:27;16.00;98.50
10263;DHT22;5177;50.068;8.156;2023-04-15T10:55:53;15.80;99.00
10263;DHT22;5177;50.068;8.156;2023-04-15T10:58:19;15.50;99.90
10263;DHT22;5177;50.068;8.156;2023-04-15T11:00:51;15.60;99.90
10263;DHT22;5177;50.068;8.156;2023-04-15T11:03:20;15.50;99.30
10263;DHT22;5177;50.068;8.156;2023-04-15T11:05:58;15.30;99.70
10263;DHT22;5177;50.068;8.156;2023-04-15T11:11:08;15.30;92.60
10263;DHT22;5177;50.068;8.156;2023-04-15T11:13:33;15.40;87.60
10263;DHT22;5177;50.068;8.156;2023-04-15T11:15:59;15.40;80.60
10263;DHT22;5177;50.068;8.156;2023-04-15T11:18:26;15.40;81.80
10263;DHT22;5177;50.068;8.156;2023-04-15T11:20:53;15.60;81.30
10263;DHT22;5177;50.068;8.156;2023-04-15T11:23:31;15.90;81.50
10263;DHT22;5177;50.068;8.156;2023-04-15T11:25:57;16.20;77.50
10263;DHT22;5177;50.068;8.156;2023-04-15T11:28:27;16.70;72.70
10263;DHT22;5177;50.068;8.156;2023-04-15T11:30:53;16.70;70.30
10263;DHT22;5177;50.068;8.156;2023-04-15T11:33:20;16.80;69.80
10263;DHT22;5177;50.068;8.156;2023-04-15T11:35:46;16.90;73.20
10263;DHT22;5177;50.068;8.156;2023-04-15T11:38:12;16.80;70.30
10263;DHT22;5177;50.068;8.156;2023-04-15T11:40:38;16.80;70.90
10263;DHT22;5177;50.068;8.156;2023-04-15T11:45:32;16.40;73.90
10263;DHT22;5177;50.068;8.156;2023-04-15T11:48:07;16.40;78.70
10263;DHT22;5177;50.068;8.156;2023-04-15T11:50:33;16.30;78.00
10263;DHT22;5177;50.068;8.156;2023-04-15T11:53:02;16.10;81.70
10263;DHT22;5177;50.068;8.156;2023-04-15T11:55:28;16.20;83.90
10263;DHT22;5177;50.068;8.156;2023-04-15T11:58:10;16.00;87.10
10263;DHT22;5177;50.068;8.156;2023-04-15T12:00:37;15.90;88.60
10263;DHT22;5177;50.068;8.156;2023-04-15T12:03:24;16.00;88.90
10263;DHT22;5177;50.068;8.156;2023-04-15T12:11:20;16.10;94.20
10263;DHT22;5177;50.068;8.156;2023-04-15T12:13:49;16.20;95.70
10263;DHT22;5177;50.068;8.156;2023-04-15T12:16:16;16.20;96.40
10263;DHT22;5177;50.068;8.156;2023-04-15T12:18:43;16.00;96.90
10263;DHT22;5177;50.068;8.156;2023-04-15T12:21:09;16.00;97.00
10263;DHT22;5177;50.068;8.156;2023-04-15T12:23:39;15.90;98.90
10263;DHT22;5177;50.068;8.156;2023-04-15T12:26:04;15.70;99.90
10263;DHT22;5177;50.068;8.156;2023-04-15T12:28:33;15.70;99.90
10263;DHT22;5177;50.068;8.156;2023-04-15T12:30:58;15.50;99.90
10263;DHT22;5177;50.068;8.156;2023-04-15T12:33:31;15.50;99.90
10263;DHT22;5177;50.068;8.156;2023-04-15T12:35:57;15.30;99.90
10263;DHT22;5177;50.068;8.156;2023-04-15T12:38:22;15.20;99.90
10263;DHT22;5177;50.068;8.156;2023-04-15T12:40:48;15.10;99.90
10263;DHT22;5177;50.068;8.156;2023-04-15T12:43:13;15.00;99.90
10263;DHT22;5177;50.068;8.156;2023-04-15T12:45:39;14.90;99.90
10263;DHT22;5177;50.068;8.156;2023-04-15T12:48:05;15.00;99.90
10263;DHT22;5177;50.068;8.156;2023-04-15T12:50:32;15.10;99.90
10263;DHT22;5177;50.068;8.156;2023-04-15T12:52:58;15.10;99.90
10263;DHT22;5177;50.068;8.156;2023-04-15T12:55:23;15.30;99.90
10263;DHT22;5177;50.068;8.156;2023-04-15T12:57:49;15.30;99.90
10263;DHT22;5177;50.068;8.156;2023-04-15T13:00:15;15.50;99.90
10263;DHT22;5177;50.068;8.156;2023-04-15T13:02:42;15.80;99.90
10263;DHT22;5177;50.068;8.156;2023-04-15T13:05:07;16.00;99.90
10263;DHT22;5177;50.068;8.156;2023-04-15T13:07:33;16.00;99.90
10263;DHT22;5177;50.068;8.156;2023-04-15T13:09:59;15.80;99.90
10263;DHT22;5177;50.068;8.156;2023-04-15T13:12:25;15.60;99.90
10263;DHT22;5177;50.068;8.156;2023-04-15T13:14:51;15.50;99.90
10263;DHT22;5177;50.068;8.156;2023-04-15T13:17:17;15.30;99.90
10263;DHT22;5177;50.068;8.156;2023-04-15T13:19:44;15.20;99.90
10263;DHT22;5177;50.068;8.156;2023-04-15T13:22:10;14.80;99.90
10263;DHT22;5177;50.068;8.156;2023-04-15T13:24:36;14.90;99.90
10263;DHT22;5177;50.068;8.156;2023-04-15T13:27:03;14.70;99.90
10263;DHT22;5177;50.068;8.156;2023-04-15T13:29:29;14.60;99.90
10263;DHT22;5177;50.068;8.156;2023-04-15T13:31:55;14.50;99.90
10263;DHT22;5177;50.068;8.156;2023-04-15T13:34:20;14.40;99.90
10263;DHT22;5177;50.068;8.156;2023-04-15T13:36:46;14.40;99.90
10263;DHT22;5177;50.068;8.156;2023-04-15T13:39:12;14.10;99.90
10263;DHT22;5177;50.068;8.156;2023-04-15T13:41:37;14.10;99.90
10263;DHT22;5177;50.068;8.156;2023-04-15T13:44:03;14.10;99.90
10263;DHT22;5177;50.068;8.156;2023-04-15T13:46:29;14.10;99.90
10263;DHT22;5177;50.068;8.156;2023-04-15T13:48:55;14.10;99.90
10263;DHT22;5177;50.068;8.156;2023-04-15T13:51:20;14.10;99.90
10263;DHT22;5177;50.068;8.156;2023-04-15T13:53:46;14.10;99.90
10263;DHT22;5177;50.068;8.156;2023-04-15T13:56:11;14.00;99.90
10263;DHT22;5177;50.068;8.156;2023-04-15T13:58:37;14.00;99.90
10263;DHT22;5177;50.068;8.156;2023-04-15T14:01:02;13.80;99.90
10263;DHT22;5177;50.068;8.156;2023-04-15T14:03:28;13.80;99.90
10263;DHT22;5177;50.068;8.156;2023-04-15T14:05:54;13.70;99.90
10263;DHT22;5177;50.068;8.156;2023-04-15T14:08:21;13.60;99.90
10263;DHT22;5177;50.068;8.156;2023-04-15T14:10:47;13.40;99.90
10263;DHT22;5177;50.068;8.156;2023-04-15T14:13:15;13.30;99.90
10263;DHT22;5177;50.068;8.156;2023-04-15T14:15:41;13.30;99.90
10263;DHT22;5177;50.068;8.156;2023-04-15T14:18:06;13.20;99.90
10263;DHT22;5177;50.068;8.156;2023-04-15T14:20:32;13.10;99.90
10263;DHT22;5177;50.068;8.156;2023-04-15T14:22:57;12.90;99.90
10263;DHT22;5177;50.068;8.156;2023-04-15T14:25:23;12.90;99.90
10263;DHT22;5177;50.068;8.156;2023-04-15T14:27:49;12.80;99.90
10263;DHT22;5177;50.068;8.156;2023-04-15T14:30:14;12.70;99.90
10263;DHT22;5177;50.068;8.156;2023-04-15T14:32:40;12.50;99.90
10263;DHT22;5177;50.068;8.156;2023-04-15T14:35:05;12.50;99.90
10263;DHT22;5177;50.068;8.156;2023-04-15T14:37:31;12.40;99.90
10263;DHT22;5177;50.068;8.156;2023-04-15T14:39:57;12.50;99.90
10263;DHT22;5177;50.068;8.156;2023-04-15T14:42:23;12.40;99.90
10263;DHT22;5177;50.068;8.156;2023-04-15T14:44:49;12.50;99.90
10263;DHT22;5177;50.068;8.156;2023-04-15T14:47:15;12.40;99.90
10263;DHT22;5177;50.068;8.156;2023-04-15T14:49:41;12.50;99.90
10263;DHT22;5177;50.068;8.156;2023-04-15T14:52:06;12.50;99.90
10263;DHT22;5177;50.068;8.156;2023-04-15T14:54:32;12.40;99.90
10263;DHT22;5177;50.068;8.156;2023-04-15T14:56:57;12.40;99.90
10263;DHT22;5177;50.068;8.156;2023-04-15T14:59:23;12.40;99.90
10263;DHT22;5177;50.068;8.156;2023-04-15T15:01:49;12.40;99.90
10263;DHT22;5177;50.068;8.156;2023-04-15T15:04:14;12.30;99.90
10263;DHT22;5177;50.068;8.156;2023-04-15T15:06:40;12.40;99.90
10263;DHT22;5177;50.068;8.156;2023-04-15T15:09:05;12.30;99.90
10263;DHT22;5177;50.068;8.156;2023-04-15T15:11:31;12.20;99.90
10263;DHT22;5177;50.068;8.156;2023-04-15T15:13:57;12.20;99.90
10263;DHT22;5177;50.068;8.156;2023-04-15T15:16:23;12.20;99.90
10263;DHT22;5177;50.068;8.156;2023-04-15T15:18:49;12.20;99.90
10263;DHT22;5177;50.068;8.156;2023-04-15T15:21:15;12.10;99.90
10263;DHT22;5177;50.068;8.156;2023-04-15T15:23:41;12.10;99.90
10263;DHT22;5177;50.068;8.156;2023-04-15T15:26:07;12.00;99.90
10263;DHT22;5177;50.068;8.156;2023-04-15T15:28:33;12.00;99.90
10263;DHT22;5177;50.068;8.156;2023-04-15T15:30:58;12.00;99.90
10263;DHT22;5177;50.068;8.156;2023-04-15T15:33:24;11.90;99.90
10263;DHT22;5177;50.068;8.156;2023-04-15T15:35:50;11.80;99.90
10263;DHT22;5177;50.068;8.156;2023-04-15T15:38:15;11.70;99.90
10263;DHT22;5177;50.068;8.156;2023-04-15T15:40:41;11.70;99.90
10263;DHT22;5177;50.068;8.156;2023-04-15T15:43:07;11.60;99.90
10263;DHT22;5177;50.068;8.156;2023-04-15T15:45:32;11.60;99.90
10263;DHT22;5177;50.068;8.156;2023-04-15T15:47:59;11.50;99.90
10263;DHT22;5177;50.068;8.156;2023-04-15T15:50:25;11.50;99.90
10263;DHT22;5177;50.068;8.156;2023-04-15T15:52:51;11.50;99.90
10263;DHT22;5177;50.068;8.156;2023-04-15T15:55:16;11.40;99.90
10263;DHT22;5177;50.068;8.156;2023-04-15T15:57:42;11.40;99.90
10263;DHT22;5177;50.068;8.156;2023-04-15T16:00:08;11.30;99.90
10263;DHT22;5177;50.068;8.156;2023-04-15T16:02:34;11.30;99.90